sensor_id;sensor_type;location;lat;lon;timestamp;pressure;altitude;pressure_sealevel;temperature
72405;BMP280;60395;52.020;113.548;2023-04-02T00:03:13;93348.38;;;-3.74
72405;BMP280;60395;52.020;113.548;2023-04-02T00:09:37;93385.19;;;-3.69
72405;BMP280;60395;52.020;113.548;2023-04-02T00:13:16;93373.94;;;-3.76
72405;BMP280;60395;52.020;113.548;2023-04-02T00:16:22;93379.31;;;-3.72
72405;BMP280;60395;52.020;113.548;2023-04-02T00:19:37;93372.69;;;-3.63
72405;BMP280;60395;52.020;113.548;2023-04-02T00:22:43;93372.97;;;-3.57
72405;BMP280;60395;52.020;113.548;2023-04-02T00:25:47;93389.31;;;-3.64
72405;BMP280;60395;52.020;113.548;2023-04-02T00:28:51;93346.63;;;-3.71
72405;BMP280;60395;52.020;113.548;2023-04-02T00:31:57;93314.81;;;-3.78
72405;BMP280;60395;52.020;113.548;2023-04-02T00:35:01;93303.13;;;-3.81
72405;BMP280;60395;52.020;113.548;2023-04-02T00:38:06;93317.84;;;-3.81
72405;BMP280;60395;52.020;113.548;2023-04-02T00:41:15;93281.44;;;-3.78
72405;BMP280;60395;52.020;113.548;2023-04-02T00:44:20;93285.50;;;-3.61
72405;BMP280;60395;52.020;113.548;2023-04-02T00:47:26;93263.25;;;-3.56
72405;BMP280;60395;52.020;113.548;2023-04-02T00:50:40;93269.13;;;-3.42
72405;BMP280;60395;52.020;113.548;2023-04-02T00:53:46;93274.66;;;-3.59
72405;BMP280;60395;52.020;113.548;2023-04-02T00:56:54;93284.00;;;-3.52
72405;BMP280;60395;52.020;113.548;2023-04-02T01:00:13;93284.31;;;-3.46
72405;BMP280;60395;52.020;113.548;2023-04-02T01:06:31;93304.69;;;-3.37
72405;BMP280;60395;52.020;113.548;2023-04-02T01:09:52;93264.34;;;-3.34
72405;BMP280;60395;52.020;113.548;2023-04-02T01:20:07;93316.63;;;-3.16
72405;BMP280;60395;52.020;113.548;2023-04-02T01:27:00;93330.88;;;-3.13
72405;BMP280;60395;52.020;113.548;2023-04-02T01:30:05;93324.84;;;-3.31
72405;BMP280;60395;52.020;113.548;2023-04-02T01:33:10;93333.22;;;-3.31
72405;BMP280;60395;52.020;113.548;2023-04-02T01:36:30;93333.41;;;-3.27
72405;BMP280;60395;52.020;113.548;2023-04-02T01:39:56;93321.13;;;-3.42
72405;BMP280;60395;52.020;113.548;2023-04-02T01:43:24;93320.03;;;-3.50
72405;BMP280;60395;52.020;113.548;2023-04-02T01:46:32;93310.75;;;-3.44
72405;BMP280;60395;52.020;113.548;2023-04-02T01:49:35;93320.59;;;-3.27
72405;BMP280;60395;52.020;113.548;2023-04-02T01:52:41;93333.50;;;-3.25
72405;BMP280;60395;52.020;113.548;2023-04-02T01:55:58;93338.94;;;-3.32
72405;BMP280;60395;52.020;113.548;2023-04-02T01:59:03;93332.56;;;-3.31
72405;BMP280;60395;52.020;113.548;2023-04-02T02:02:12;93335.28;;;-3.41
72405;BMP280;60395;52.020;113.548;2023-04-02T02:05:21;93345.78;;;-3.37
72405;BMP280;60395;52.020;113.548;2023-04-02T02:11:42;93337.53;;;-3.21
72405;BMP280;60395;52.020;113.548;2023-04-02T02:14:50;93349.56;;;-3.38
72405;BMP280;60395;52.020;113.548;2023-04-02T02:18:01;93343.34;;;-3.46
72405;BMP280;60395;52.020;113.548;2023-04-02T02:21:06;93353.63;;;-3.46
72405;BMP280;60395;52.020;113.548;2023-04-02T02:24:32;93361.06;;;-3.39
72405;BMP280;60395;52.020;113.548;2023-04-02T02:34:15;93377.75;;;-3.51
72405;BMP280;60395;52.020;113.548;2023-04-02T02:37:28;93376.41;;;-3.52
72405;BMP280;60395;52.020;113.548;2023-04-02T02:40:42;93371.81;;;-3.68
72405;BMP280;60395;52.020;113.548;2023-04-02T02:44:09;93370.69;;;-3.64
72405;BMP280;60395;52.020;113.548;2023-04-02T02:47:14;93385.66;;;-3.47
72405;BMP280;60395;52.020;113.548;2023-04-02T02:50:24;93381.91;;;-3.58
72405;BMP280;60395;52.020;113.548;2023-04-02T02:53:29;93377.06;;;-3.66
72405;BMP280;60395;52.020;113.548;2023-04-02T02:56:36;93360.97;;;-3.66
72405;BMP280;60395;52.020;113.548;2023-04-02T02:59:42;93380.88;;;-3.53
72405;BMP280;60395;52.020;113.548;2023-04-02T03:02:46;93373.72;;;-3.43
72405;BMP280;60395;52.020;113.548;2023-04-02T03:05:56;93364.19;;;-3.40
72405;BMP280;60395;52.020;113.548;2023-04-02T03:09:14;93372.69;;;-3.38
72405;BMP280;60395;52.020;113.548;2023-04-02T03:15:54;93354.72;;;-3.38
72405;BMP280;60395;52.020;113.548;2023-04-02T03:19:16;93349.22;;;-3.32
72405;BMP280;60395;52.020;113.548;2023-04-02T03:22:28;93353.72;;;-3.19
72405;BMP280;60395;52.020;113.548;2023-04-02T03:25:38;93344.22;;;-3.16
72405;BMP280;60395;52.020;113.548;2023-04-02T03:32:22;93332.63;;;-3.43
72405;BMP280;60395;52.020;113.548;2023-04-02T03:39:31;93334.22;;;-3.49
72405;BMP280;60395;52.020;113.548;2023-04-02T03:42:48;93327.44;;;-3.31
72405;BMP280;60395;52.020;113.548;2023-04-02T03:46:28;93320.09;;;-3.23
72405;BMP280;60395;52.020;113.548;2023-04-02T03:49:43;93326.91;;;-3.16
72405;BMP280;60395;52.020;113.548;2023-04-02T03:52:48;93321.94;;;-3.12
72405;BMP280;60395;52.020;113.548;2023-04-02T03:55:53;93311.19;;;-3.22
72405;BMP280;60395;52.020;113.548;2023-04-02T03:59:18;93302.69;;;-3.38
72405;BMP280;60395;52.020;113.548;2023-04-02T04:02:44;93313.47;;;-3.53
72405;BMP280;60395;52.020;113.548;2023-04-02T04:05:54;93318.13;;;-3.50
72405;BMP280;60395;52.020;113.548;2023-04-02T04:12:33;93293.47;;;-3.02
72405;BMP280;60395;52.020;113.548;2023-04-02T04:15:50;93297.78;;;-3.07
72405;BMP280;60395;52.020;113.548;2023-04-02T04:19:03;93277.78;;;-3.08
72405;BMP280;60395;52.020;113.548;2023-04-02T04:25:27;93267.22;;;-3.28
72405;BMP280;60395;52.020;113.548;2023-04-02T04:35:37;93261.91;;;-3.18
72405;BMP280;60395;52.020;113.548;2023-04-02T04:38:49;93254.19;;;-3.18
72405;BMP280;60395;52.020;113.548;2023-04-02T04:42:00;93265.41;;;-3.26
72405;BMP280;60395;52.020;113.548;2023-04-02T04:45:27;93263.22;;;-3.31
72405;BMP280;60395;52.020;113.548;2023-04-02T04:51:51;93250.59;;;-3.52
72405;BMP280;60395;52.020;113.548;2023-04-02T04:54:58;93251.03;;;-3.44
72405;BMP280;60395;52.020;113.548;2023-04-02T05:04:42;93246.63;;;-3.55
72405;BMP280;60395;52.020;113.548;2023-04-02T05:07:58;93253.66;;;-3.56
72405;BMP280;60395;52.020;113.548;2023-04-02T05:11:51;93280.75;;;-3.53
72405;BMP280;60395;52.020;113.548;2023-04-02T05:14:37;93247.19;;;-3.57
72405;BMP280;60395;52.020;113.548;2023-04-02T05:21:32;93213.09;;;-3.46
72405;BMP280;60395;52.020;113.548;2023-04-02T05:24:42;93204.41;;;-3.52
72405;BMP280;60395;52.020;113.548;2023-04-02T05:34:40;93211.66;;;-3.49
72405;BMP280;60395;52.020;113.548;2023-04-02T05:37:45;93196.91;;;-3.48
72405;BMP280;60395;52.020;113.548;2023-04-02T05:40:57;93204.91;;;-3.42
72405;BMP280;60395;52.020;113.548;2023-04-02T05:47:28;93199.50;;;-3.21
72405;BMP280;60395;52.020;113.548;2023-04-02T05:50:36;93207.22;;;-3.21
72405;BMP280;60395;52.020;113.548;2023-04-02T05:53:52;93199.38;;;-3.23
72405;BMP280;60395;52.020;113.548;2023-04-02T05:57:03;93194.63;;;-3.29
72405;BMP280;60395;52.020;113.548;2023-04-02T06:00:16;93188.44;;;-3.23
72405;BMP280;60395;52.020;113.548;2023-04-02T06:03:41;93186.16;;;-3.17
72405;BMP280;60395;52.020;113.548;2023-04-02T06:10:29;93190.97;;;-2.96
72405;BMP280;60395;52.020;113.548;2023-04-02T06:13:34;93201.53;;;-2.76
72405;BMP280;60395;52.020;113.548;2023-04-02T06:16:37;93188.09;;;-2.61
72405;BMP280;60395;52.020;113.548;2023-04-02T06:19:42;93168.28;;;-2.72
72405;BMP280;60395;52.020;113.548;2023-04-02T06:23:15;93160.00;;;-2.71
72405;BMP280;60395;52.020;113.548;2023-04-02T06:26:34;93151.38;;;-2.77
72405;BMP280;60395;52.020;113.548;2023-04-02T06:29:42;93164.00;;;-3.11
72405;BMP280;60395;52.020;113.548;2023-04-02T06:32:51;93173.31;;;-3.04
72405;BMP280;60395;52.020;113.548;2023-04-02T06:35:55;93174.28;;;-3.11
72405;BMP280;60395;52.020;113.548;2023-04-02T06:39:09;93165.50;;;-3.06
72405;BMP280;60395;52.020;113.548;2023-04-02T06:42:24;93163.44;;;-3.09
72405;BMP280;60395;52.020;113.548;2023-04-02T06:45:45;93155.22;;;-3.06
72405;BMP280;60395;52.020;113.548;2023-04-02T06:55:45;93177.19;;;-2.89
72405;BMP280;60395;52.020;113.548;2023-04-02T06:58:54;93162.28;;;-2.93
72405;BMP280;60395;52.020;113.548;2023-04-02T07:02:01;93153.59;;;-2.99
72405;BMP280;60395;52.020;113.548;2023-04-02T07:05:09;93142.59;;;-3.15
72405;BMP280;60395;52.020;113.548;2023-04-02T07:08:18;93160.84;;;-3.23
72405;BMP280;60395;52.020;113.548;2023-04-02T07:11:22;93168.75;;;-3.19
72405;BMP280;60395;52.020;113.548;2023-04-02T07:14:29;93150.75;;;-3.05
72405;BMP280;60395;52.020;113.548;2023-04-02T07:17:32;93146.19;;;-2.93
72405;BMP280;60395;52.020;113.548;2023-04-02T07:20:35;93163.38;;;-2.82
72405;BMP280;60395;52.020;113.548;2023-04-02T07:23:46;93170.22;;;-2.87
72405;BMP280;60395;52.020;113.548;2023-04-02T07:26:50;93163.44;;;-2.80
72405;BMP280;60395;52.020;113.548;2023-04-02T07:29:53;93167.25;;;-2.81
72405;BMP280;60395;52.020;113.548;2023-04-02T07:32:56;93153.00;;;-2.84
72405;BMP280;60395;52.020;113.548;2023-04-02T07:36:00;93142.88;;;-2.80
72405;BMP280;60395;52.020;113.548;2023-04-02T07:39:03;93150.97;;;-2.72
72405;BMP280;60395;52.020;113.548;2023-04-02T07:42:07;93137.94;;;-2.76
72405;BMP280;60395;52.020;113.548;2023-04-02T07:45:10;93137.00;;;-2.82
72405;BMP280;60395;52.020;113.548;2023-04-02T07:48:13;93143.13;;;-2.90
72405;BMP280;60395;52.020;113.548;2023-04-02T07:51:20;93128.94;;;-2.91
72405;BMP280;60395;52.020;113.548;2023-04-02T07:54:23;93132.19;;;-3.04
72405;BMP280;60395;52.020;113.548;2023-04-02T07:57:28;93131.28;;;-3.10
72405;BMP280;60395;52.020;113.548;2023-04-02T08:00:32;93134.41;;;-3.12
72405;BMP280;60395;52.020;113.548;2023-04-02T08:03:35;93134.41;;;-3.12
72405;BMP280;60395;52.020;113.548;2023-04-02T08:06:39;93119.84;;;-3.07
72405;BMP280;60395;52.020;113.548;2023-04-02T08:09:42;93130.47;;;-2.99
72405;BMP280;60395;52.020;113.548;2023-04-02T08:12:45;93129.78;;;-2.86
72405;BMP280;60395;52.020;113.548;2023-04-02T08:15:49;93130.44;;;-2.86
72405;BMP280;60395;52.020;113.548;2023-04-02T08:18:52;93135.94;;;-2.77
72405;BMP280;60395;52.020;113.548;2023-04-02T08:21:55;93138.19;;;-2.70
72405;BMP280;60395;52.020;113.548;2023-04-02T08:24:59;93132.44;;;-2.55
72405;BMP280;60395;52.020;113.548;2023-04-02T08:28:02;93121.50;;;-2.39
72405;BMP280;60395;52.020;113.548;2023-04-02T08:31:05;93126.53;;;-2.57
72405;BMP280;60395;52.020;113.548;2023-04-02T08:34:11;93122.94;;;-2.66
72405;BMP280;60395;52.020;113.548;2023-04-02T08:37:14;93131.47;;;-2.77
72405;BMP280;60395;52.020;113.548;2023-04-02T08:47:02;93122.31;;;-2.80
72405;BMP280;60395;52.020;113.548;2023-04-02T08:50:33;93125.66;;;-2.77
72405;BMP280;60395;52.020;113.548;2023-04-02T08:53:38;93128.19;;;-2.93
72405;BMP280;60395;52.020;113.548;2023-04-02T08:56:50;93129.88;;;-2.84
72405;BMP280;60395;52.020;113.548;2023-04-02T09:00:00;93116.00;;;-2.93
72405;BMP280;60395;52.020;113.548;2023-04-02T09:06:17;93123.56;;;-3.10
72405;BMP280;60395;52.020;113.548;2023-04-02T09:09:21;93113.59;;;-3.18
72405;BMP280;60395;52.020;113.548;2023-04-02T09:12:26;93119.00;;;-3.12
72405;BMP280;60395;52.020;113.548;2023-04-02T09:15:34;93115.56;;;-3.30
72405;BMP280;60395;52.020;113.548;2023-04-02T09:18:39;93118.25;;;-3.42
72405;BMP280;60395;52.020;113.548;2023-04-02T09:21:55;93119.03;;;-3.39
72405;BMP280;60395;52.020;113.548;2023-04-02T09:25:02;93124.25;;;-3.37
72405;BMP280;60395;52.020;113.548;2023-04-02T09:28:10;93116.94;;;-3.43
72405;BMP280;60395;52.020;113.548;2023-04-02T09:31:29;93116.25;;;-3.57
72405;BMP280;60395;52.020;113.548;2023-04-02T09:34:35;93112.00;;;-3.66
72405;BMP280;60395;52.020;113.548;2023-04-02T09:37:39;93106.09;;;-3.69
72405;BMP280;60395;52.020;113.548;2023-04-02T09:44:18;93107.34;;;-3.70
72405;BMP280;60395;52.020;113.548;2023-04-02T09:47:25;93112.56;;;-3.68
72405;BMP280;60395;52.020;113.548;2023-04-02T09:50:31;93114.34;;;-3.84
72405;BMP280;60395;52.020;113.548;2023-04-02T09:53:37;93118.63;;;-3.88
72405;BMP280;60395;52.020;113.548;2023-04-02T09:57:01;93116.94;;;-3.84
72405;BMP280;60395;52.020;113.548;2023-04-02T10:00:24;93112.53;;;-3.95
72405;BMP280;60395;52.020;113.548;2023-04-02T10:03:34;93111.88;;;-3.95
72405;BMP280;60395;52.020;113.548;2023-04-02T10:06:48;93120.78;;;-3.96
72405;BMP280;60395;52.020;113.548;2023-04-02T10:09:59;93119.94;;;-4.01
72405;BMP280;60395;52.020;113.548;2023-04-02T10:17:00;93124.94;;;-4.17
72405;BMP280;60395;52.020;113.548;2023-04-02T10:20:24;93127.50;;;-4.30
72405;BMP280;60395;52.020;113.548;2023-04-02T10:23:29;93127.50;;;-4.30
72405;BMP280;60395;52.020;113.548;2023-04-02T10:30:17;93121.38;;;-4.37
72405;BMP280;60395;52.020;113.548;2023-04-02T10:33:26;93126.75;;;-4.45
72405;BMP280;60395;52.020;113.548;2023-04-02T10:36:46;93124.16;;;-4.58
72405;BMP280;60395;52.020;113.548;2023-04-02T10:40:18;93142.53;;;-4.62
72405;BMP280;60395;52.020;113.548;2023-04-02T10:46:58;93148.88;;;-4.63
72405;BMP280;60395;52.020;113.548;2023-04-02T10:50:24;93145.09;;;-4.62
72405;BMP280;60395;52.020;113.548;2023-04-02T11:00:30;93149.34;;;-4.55
72405;BMP280;60395;52.020;113.548;2023-04-02T11:07:16;93148.88;;;-4.51
72405;BMP280;60395;52.020;113.548;2023-04-02T11:10:20;93154.09;;;-4.49
72405;BMP280;60395;52.020;113.548;2023-04-02T11:13:36;93144.31;;;-4.53
72405;BMP280;60395;52.020;113.548;2023-04-02T11:16:43;93150.53;;;-4.56
72405;BMP280;60395;52.020;113.548;2023-04-02T11:19:47;93144.66;;;-4.58
72405;BMP280;60395;52.020;113.548;2023-04-02T11:23:12;93154.47;;;-4.55
72405;BMP280;60395;52.020;113.548;2023-04-02T11:26:37;93157.69;;;-4.54
72405;BMP280;60395;52.020;113.548;2023-04-02T11:30:14;93158.34;;;-4.54
72405;BMP280;60395;52.020;113.548;2023-04-02T11:39:54;93167.66;;;-4.72
72405;BMP280;60395;52.020;113.548;2023-04-02T11:46:40;93162.69;;;-4.93
72405;BMP280;60395;52.020;113.548;2023-04-02T11:49:57;93167.03;;;-4.96
72405;BMP280;60395;52.020;113.548;2023-04-02T11:53:31;93167.72;;;-5.07
72405;BMP280;60395;52.020;113.548;2023-04-02T11:56:42;93164.25;;;-5.11
72405;BMP280;60395;52.020;113.548;2023-04-02T12:03:42;93163.63;;;-5.24
72405;BMP280;60395;52.020;113.548;2023-04-02T12:09:58;93159.59;;;-5.15
72405;BMP280;60395;52.020;113.548;2023-04-02T12:13:02;93165.19;;;-5.18
72405;BMP280;60395;52.020;113.548;2023-04-02T12:16:08;93158.50;;;-5.24
72405;BMP280;60395;52.020;113.548;2023-04-02T12:19:13;93162.19;;;-5.27
72405;BMP280;60395;52.020;113.548;2023-04-02T12:22:24;93173.97;;;-5.33
72405;BMP280;60395;52.020;113.548;2023-04-02T12:28:34;93161.72;;;-5.23
72405;BMP280;60395;52.020;113.548;2023-04-02T12:31:47;93165.63;;;-5.22
72405;BMP280;60395;52.020;113.548;2023-04-02T12:34:52;93166.19;;;-5.24
72405;BMP280;60395;52.020;113.548;2023-04-02T12:37:56;93170.75;;;-5.22
72405;BMP280;60395;52.020;113.548;2023-04-02T12:41:04;93174.19;;;-5.17
72405;BMP280;60395;52.020;113.548;2023-04-02T12:44:19;93164.28;;;-5.23
72405;BMP280;60395;52.020;113.548;2023-04-02T12:47:26;93162.84;;;-5.26
72405;BMP280;60395;52.020;113.548;2023-04-02T12:50:31;93151.25;;;-5.27
72405;BMP280;60395;52.020;113.548;2023-04-02T12:53:39;93160.06;;;-5.30
72405;BMP280;60395;52.020;113.548;2023-04-02T12:56:43;93161.97;;;-5.31
72405;BMP280;60395;52.020;113.548;2023-04-02T12:59:46;93167.09;;;-5.31
72405;BMP280;60395;52.020;113.548;2023-04-02T13:06:20;93160.50;;;-5.34
72405;BMP280;60395;52.020;113.548;2023-04-02T13:09:37;93162.75;;;-5.40
72405;BMP280;60395;52.020;113.548;2023-04-02T13:12:44;93161.19;;;-5.45
72405;BMP280;60395;52.020;113.548;2023-04-02T13:16:01;93158.22;;;-5.41
72405;BMP280;60395;52.020;113.548;2023-04-02T13:19:25;93155.06;;;-5.40
72405;BMP280;60395;52.020;113.548;2023-04-02T13:22:30;93147.16;;;-5.44
72405;BMP280;60395;52.020;113.548;2023-04-02T13:25:35;93151.19;;;-5.41
72405;BMP280;60395;52.020;113.548;2023-04-02T13:28:38;93157.75;;;-5.38
72405;BMP280;60395;52.020;113.548;2023-04-02T13:31:42;93147.03;;;-5.34
72405;BMP280;60395;52.020;113.548;2023-04-02T13:34:45;93155.72;;;-5.28
72405;BMP280;60395;52.020;113.548;2023-04-02T13:37:48;93143.72;;;-5.25
72405;BMP280;60395;52.020;113.548;2023-04-02T13:40:52;93151.72;;;-5.19
72405;BMP280;60395;52.020;113.548;2023-04-02T13:43:58;93158.94;;;-5.15
72405;BMP280;60395;52.020;113.548;2023-04-02T13:47:02;93160.84;;;-5.16
72405;BMP280;60395;52.020;113.548;2023-04-02T13:50:05;93157.06;;;-5.15
72405;BMP280;60395;52.020;113.548;2023-04-02T13:53:18;93163.94;;;-5.17
72405;BMP280;60395;52.020;113.548;2023-04-02T13:56:23;93165.28;;;-5.16
72405;BMP280;60395;52.020;113.548;2023-04-02T13:59:26;93162.84;;;-5.26
72405;BMP280;60395;52.020;113.548;2023-04-02T14:02:30;93162.97;;;-5.24
72405;BMP280;60395;52.020;113.548;2023-04-02T14:05:47;93163.63;;;-5.24
72405;BMP280;60395;52.020;113.548;2023-04-02T14:22:35;93170.41;;;-5.16
72405;BMP280;60395;52.020;113.548;2023-04-02T14:26:01;93166.19;;;-5.24
72405;BMP280;60395;52.020;113.548;2023-04-02T14:29:36;93166.41;;;-5.19
72405;BMP280;60395;52.020;113.548;2023-04-02T14:46:27;93172.56;;;-5.25
72405;BMP280;60395;52.020;113.548;2023-04-02T14:49:34;93177.00;;;-5.25
72405;BMP280;60395;52.020;113.548;2023-04-02T14:52:43;93167.97;;;-5.26
72405;BMP280;60395;52.020;113.548;2023-04-02T14:55:51;93162.19;;;-5.27
72405;BMP280;60395;52.020;113.548;2023-04-02T14:59:32;93160.16;;;-5.28
72405;BMP280;60395;52.020;113.548;2023-04-02T15:02:54;93160.84;;;-5.28
72405;BMP280;60395;52.020;113.548;2023-04-02T15:06:40;93162.97;;;-5.24
72405;BMP280;60395;52.020;113.548;2023-04-02T15:09:59;93161.06;;;-5.24
72405;BMP280;60395;52.020;113.548;2023-04-02T15:13:18;93163.28;;;-5.18
72405;BMP280;60395;52.020;113.548;2023-04-02T15:16:38;93160.38;;;-5.12
72405;BMP280;60395;52.020;113.548;2023-04-02T15:19:48;93159.94;;;-5.09
72405;BMP280;60395;52.020;113.548;2023-04-02T15:23:08;93156.59;;;-5.11
